On Ira — FAD7458 — position and weather

sailwx.info

Track history (hours):
 
Tides and Currents Weather Stations Pressure Air Temp Water Temp Dewpoint Dewpoint Depression Visibility Wind Speed Wind Dir Waves Ship Positions

On Ira

Last reported at 2018-Jun-06 15:38 UTC. Time now 2018-Jun-22 14:52 UTC.
Position N 14°17' W 060°55'.
Warning: this ship's position is 15 days out of date.

Length 13 m.

Type: Pleasure craft. MMSI: 227425720.

Date/timePositionNaut miles runAvg speedWind from/ knotsBaromVisibWave heightAir tempDewpointWater temp
2018-Jun-06 15:38N 14°17' W 060°55'1 6.6
2018-Jun-06 15:27N 14°18' W 060°55'3 5.9
2018-Jun-06 15:00N 14°21' W 060°55'3 5.9
2018-Jun-06 14:29N 14°24' W 060°54'2 5.1
2018-Jun-06 14:00N 14°26' W 060°54'1 1.1
2018-Jun-06 13:28N 14°26' W 060°53'0 0.0
2018-Jun-06 12:58N 14°26' W 060°53'0 0.0
2018-Jun-06 12:30N 14°26' W 060°53'0 0.0
2018-Jun-05 20:03N 14°26' W 060°53'0 0.0
2018-Jun-05 20:00N 14°26' W 060°53'0 0.0
2018-Jun-05 19:30N 14°26' W 060°53'1 1.8
2018-Jun-05 19:00N 14°27' W 060°53'1 0.3
2018-Jun-05 15:33N 14°28' W 060°52'0 0.0
2018-Jun-05 15:30N 14°28' W 060°52'0 0.0
2018-Jun-04 14:24N 14°28' W 060°52'0 0.0
2018-Jun-03 22:51N 14°28' W 060°52'0 0.0
2018-Jun-03 22:30N 14°28' W 060°52'0 0.6
2018-Jun-03 22:00N 14°28' W 060°52'2 3.7
2018-Jun-03 21:30N 14°26' W 060°53'0 0.2
2018-Jun-03 20:59N 14°26' W 060°53'0 0.0
2018-Jun-03 20:29N 14°26' W 060°53'0 0.0
2018-Jun-03 19:59N 14°26' W 060°53'0 0.0
2018-Jun-03 19:29N 14°26' W 060°53'0 0.0
2018-Jun-03 18:59N 14°26' W 060°53'0 0.0
2018-Jun-03 18:29N 14°26' W 060°53'0 0.0
2018-Jun-03 17:53N 14°26' W 060°53'0 0.0
2018-Jun-03 17:29N 14°26' W 060°53'0 0.0
2018-Jun-03 16:59N 14°26' W 060°53'0 0.0
2018-Jun-03 16:29N 14°26' W 060°53'0 0.0
2018-Jun-03 15:56N 14°26' W 060°53'0 0.0
2018-Jun-03 15:29N 14°26' W 060°53'0 0.0
2018-Jun-03 14:59N 14°26' W 060°53'1 1.7
2018-Jun-03 14:30N 14°27' W 060°53'0 0.0
2018-Jun-03 14:00N 14°27' W 060°53'0 0.0
2018-Jun-03 13:30N 14°27' W 060°53'0 0.5
2018-Jun-03 13:00N 14°27' W 060°53'  
2018-May-31 16:55N 14°28' W 060°52'0 0.0
2018-May-31 16:28N 14°28' W 060°52'0 0.0
2018-May-31 15:58N 14°28' W 060°52'0 0.0
2018-May-31 15:28N 14°28' W 060°52'0 0.0
2018-May-29 21:04N 14°28' W 060°52'0 0.0
2018-May-29 20:58N 14°28' W 060°52'0 0.0
2018-May-29 20:28N 14°28' W 060°52'0 0.0
2018-May-29 19:58N 14°28' W 060°52'0 0.0
2018-May-29 19:28N 14°28' W 060°52'0 0.0
2018-May-29 18:58N 14°28' W 060°52'0 0.0
2018-May-29 18:28N 14°28' W 060°52'0 0.0
2018-May-29 17:58N 14°28' W 060°52'0 0.0
2018-May-29 17:28N 14°28' W 060°52'0 0.0
2018-May-29 16:58N 14°28' W 060°52'0 0.2
2018-May-29 16:30N 14°28' W 060°52'2 3.8
2018-May-29 15:58N 14°27' W 060°54'2 4.5
2018-May-29 15:30N 14°27' W 060°56'2 4.8
2018-May-29 15:00N 14°27' W 060°59'2 4.7
2018-May-29 14:30N 14°27' W 061°01'  
Track history (hours):
 
Tides and Currents Weather Stations Pressure Air Temp Water Temp Dewpoint Dewpoint Depression Visibility Wind Speed Wind Dir Waves Ship Positions

On Ira

Last reported at 2018-Jun-06 15:38 UTC. Time now 2018-Jun-22 14:52 UTC.
Position N 14°17' W 060°55'.
Warning: this ship's position is 15 days out of date.

Length 13 m.

Type: Pleasure craft. MMSI: 227425720.

Date/timePositionNaut miles runAvg speedWind from/ knotsBaromVisibWave heightAir tempDewpointWater temp
2018-Jun-06 15:38N 14°17' W 060°55'1 6.6
2018-Jun-06 15:27N 14°18' W 060°55'3 5.9
2018-Jun-06 15:00N 14°21' W 060°55'3 5.9
2018-Jun-06 14:29N 14°24' W 060°54'2 5.1
2018-Jun-06 14:00N 14°26' W 060°54'1 1.1
2018-Jun-06 13:28N 14°26' W 060°53'0 0.0
2018-Jun-06 12:58N 14°26' W 060°53'0 0.0
2018-Jun-06 12:30N 14°26' W 060°53'0 0.0
2018-Jun-05 20:03N 14°26' W 060°53'0 0.0
2018-Jun-05 20:00N 14°26' W 060°53'0 0.0
2018-Jun-05 19:30N 14°26' W 060°53'1 1.8
2018-Jun-05 19:00N 14°27' W 060°53'1 0.3
2018-Jun-05 15:33N 14°28' W 060°52'0 0.0
2018-Jun-05 15:30N 14°28' W 060°52'0 0.0
2018-Jun-04 14:24N 14°28' W 060°52'0 0.0
2018-Jun-03 22:51N 14°28' W 060°52'0 0.0
2018-Jun-03 22:30N 14°28' W 060°52'0 0.6
2018-Jun-03 22:00N 14°28' W 060°52'2 3.7
2018-Jun-03 21:30N 14°26' W 060°53'0 0.2
2018-Jun-03 20:59N 14°26' W 060°53'0 0.0
2018-Jun-03 20:29N 14°26' W 060°53'0 0.0
2018-Jun-03 19:59N 14°26' W 060°53'0 0.0
2018-Jun-03 19:29N 14°26' W 060°53'0 0.0
2018-Jun-03 18:59N 14°26' W 060°53'0 0.0
2018-Jun-03 18:29N 14°26' W 060°53'0 0.0
2018-Jun-03 17:53N 14°26' W 060°53'0 0.0
2018-Jun-03 17:29N 14°26' W 060°53'0 0.0
2018-Jun-03 16:59N 14°26' W 060°53'0 0.0
2018-Jun-03 16:29N 14°26' W 060°53'0 0.0
2018-Jun-03 15:56N 14°26' W 060°53'0 0.0
2018-Jun-03 15:29N 14°26' W 060°53'0 0.0
2018-Jun-03 14:59N 14°26' W 060°53'1 1.7
2018-Jun-03 14:30N 14°27' W 060°53'0 0.0
2018-Jun-03 14:00N 14°27' W 060°53'0 0.0
2018-Jun-03 13:30N 14°27' W 060°53'0 0.5
2018-Jun-03 13:00N 14°27' W 060°53'  
2018-May-31 16:55N 14°28' W 060°52'0 0.0
2018-May-31 16:28N 14°28' W 060°52'0 0.0
2018-May-31 15:58N 14°28' W 060°52'0 0.0
2018-May-31 15:28N 14°28' W 060°52'0 0.0
2018-May-29 21:04N 14°28' W 060°52'0 0.0
2018-May-29 20:58N 14°28' W 060°52'0 0.0
2018-May-29 20:28N 14°28' W 060°52'0 0.0
2018-May-29 19:58N 14°28' W 060°52'0 0.0
2018-May-29 19:28N 14°28' W 060°52'0 0.0
2018-May-29 18:58N 14°28' W 060°52'0 0.0
2018-May-29 18:28N 14°28' W 060°52'0 0.0
2018-May-29 17:58N 14°28' W 060°52'0 0.0
2018-May-29 17:28N 14°28' W 060°52'0 0.0
2018-May-29 16:58N 14°28' W 060°52'0 0.2
2018-May-29 16:30N 14°28' W 060°52'2 3.8
2018-May-29 15:58N 14°27' W 060°54'2 4.5
2018-May-29 15:30N 14°27' W 060°56'2 4.8
2018-May-29 15:00N 14°27' W 060°59'2 4.7
2018-May-29 14:30N 14°27' W 061°01'  

Dump ship's entire track history